Time;durP1;ratioP1;P1;durP2;ratioP2;P2;SDS_P1;SDS_P2;PMS_P1;PMS_P2;Temp;Humidity;BMP_temperature;BMP_pressure;BME280_temperature;BME280_humidity;BME280_pressure;Samples;Min_cycle;Max_cycle;Signal;HPM_P1;HPM_P2
2023/01/04 00:00:21;;;;;;;1.33;0.80;;;20.30;69.60;;;;;;5061455;28;20139;-15
2023/01/04 00:02:46;;;;;;;1.08;0.98;;;20.40;69.60;;;;;;5062767;28;20501;-16
2023/01/04 00:05:12;;;;;;;0.75;0.75;;;20.30;69.50;;;;;;5056389;28;24359;-14
2023/01/04 00:07:37;;;;;;;0.80;0.70;;;20.40;69.40;;;;;;5057217;28;20056;-14
2023/01/04 00:10:03;;;;;;;0.80;0.80;;;20.40;69.10;;;;;;5053021;28;20036;-14
2023/01/04 00:12:29;;;;;;;1.10;0.90;;;20.50;69.10;;;;;;5062802;28;20502;-15
2023/01/04 00:14:54;;;;;;;1.38;0.77;;;20.40;68.90;;;;;;5064805;28;20046;-14
2023/01/04 00:17:20;;;;;;;0.85;0.85;;;20.50;69.20;;;;;;5064827;28;20094;-14
2023/01/04 00:19:45;;;;;;;0.77;0.77;;;20.30;69.40;;;;;;5061141;28;20505;-16
2023/01/04 00:22:11;;;;;;;1.02;0.90;;;20.40;70.10;;;;;;5064286;28;20050;-14
2023/01/04 00:24:37;;;;;;;1.10;0.75;;;20.30;69.60;;;;;;5062143;28;20048;-14
2023/01/04 00:27:02;;;;;;;0.63;0.60;;;20.30;69.50;;;;;;5062371;28;20091;-14
2023/01/04 00:29:28;;;;;;;1.00;0.90;;;20.30;69.50;;;;;;5064815;28;20059;-14
2023/01/04 00:31:53;;;;;;;0.70;0.70;;;20.30;69.60;;;;;;5062468;28;20047;-14
2023/01/04 00:34:19;;;;;;;1.00;0.70;;;20.40;69.60;;;;;;5061247;28;20045;-15
2023/01/04 00:36:45;;;;;;;0.77;0.70;;;20.40;69.40;;;;;;5058806;28;20041;-15
2023/01/04 00:39:14;;;;;;;0.63;0.50;;;20.30;69.40;;;;;;5062097;28;20552;-14
2023/01/04 00:42:05;;;;;;;0.60;0.60;;;20.30;69.40;;;;;;5059798;28;20052;-15
2023/01/04 00:44:33;;;;;;;0.88;0.77;;;20.40;70.10;;;;;;5058948;28;20585;-13
2023/01/04 00:47:00;;;;;;;1.08;0.70;;;20.40;69.20;;;;;;5053992;28;20056;-14
2023/01/04 00:49:26;;;;;;;0.68;0.68;;;20.50;68.90;;;;;;5054653;28;20098;-15
2023/01/04 00:51:51;;;;;;;0.88;0.85;;;20.50;68.90;;;;;;5060708;28;20033;-14
2023/01/04 00:54:17;;;;;;;2.13;0.65;;;20.40;69.10;;;;;;5058378;28;20075;-14
2023/01/04 00:56:43;;;;;;;0.55;0.50;;;20.40;69.20;;;;;;5056467;28;20423;-16
2023/01/04 00:59:09;;;;;;;1.08;0.70;;;20.40;69.20;;;;;;5051666;28;20061;-15
2023/01/04 01:01:34;;;;;;;0.70;0.60;;;20.50;69.00;;;;;;5055445;28;20045;-15
2023/01/04 01:04:01;;;;;;;0.65;0.65;;;20.40;69.10;;;;;;5051893;28;20052;-15
2023/01/04 01:06:28;;;;;;;0.50;0.50;;;20.50;69.00;;;;;;5059162;28;20127;-18
2023/01/04 01:08:53;;;;;;;0.70;0.52;;;20.40;69.00;;;;;;5053034;28;20101;-14
2023/01/04 01:11:19;;;;;;;0.60;0.50;;;20.40;69.30;;;;;;5054197;28;20049;-14
2023/01/04 01:13:44;;;;;;;0.57;0.57;;;20.40;69.40;;;;;;5055194;28;20114;-17
2023/01/04 01:16:12;;;;;;;0.50;0.50;;;20.30;69.50;;;;;;5048215;28;20037;-15
2023/01/04 01:18:38;;;;;;;0.40;0.40;;;20.30;69.50;;;;;;5051274;28;20033;-15
2023/01/04 01:21:14;;;;;;;0.82;0.82;;;20.20;69.60;;;;;;5054250;28;20049;-14
2023/01/04 01:23:40;;;;;;;0.75;0.52;;;20.30;69.80;;;;;;5051053;28;20056;-14
2023/01/04 01:26:07;;;;;;;0.68;0.50;;;20.40;69.60;;;;;;5054840;28;20036;-15
2023/01/04 01:28:33;;;;;;;1.15;0.60;;;20.30;69.60;;;;;;5055004;28;20677;-16
2023/01/04 01:30:58;;;;;;;0.50;0.45;;;20.30;69.50;;;;;;5056415;28;20509;-14
2023/01/04 01:33:25;;;;;;;0.50;0.50;;;20.40;70.30;;;;;;5052964;28;20068;-14
2023/01/04 01:35:51;;;;;;;0.50;0.50;;;20.40;69.60;;;;;;5056006;28;21028;-14
2023/01/04 01:38:16;;;;;;;0.70;0.70;;;20.20;69.80;;;;;;5052644;28;20056;-17
2023/01/04 01:40:43;;;;;;;0.60;0.55;;;20.30;69.70;;;;;;5054275;28;20052;-16
2023/01/04 01:43:18;;;;;;;0.35;0.35;;;20.30;69.60;;;;;;5055810;28;20509;-14
2023/01/04 01:45:45;;;;;;;0.68;0.50;;;20.30;69.50;;;;;;5057510;28;20090;-15
2023/01/04 01:48:13;;;;;;;0.32;0.32;;;20.40;69.50;;;;;;5059358;28;20115;-15
2023/01/04 01:50:49;;;;;;;0.60;0.52;;;20.30;69.70;;;;;;5057021;28;20063;-14
2023/01/04 01:53:15;;;;;;;0.70;0.65;;;20.40;69.50;;;;;;5042856;28;20041;-25
2023/01/04 01:55:40;;;;;;;0.40;0.40;;;20.40;69.50;;;;;;5054876;28;20055;-15
2023/01/04 01:58:06;;;;;;;1.45;0.52;;;20.20;69.60;;;;;;5040759;28;20029;-14
2023/01/04 02:00:32;;;;;;;0.60;0.50;;;20.20;69.80;;;;;;5059811;28;20406;-15
2023/01/04 02:03:16;;;;;;;0.50;0.50;;;20.20;69.80;;;;;;5059639;28;20033;-15
2023/01/04 02:05:42;;;;;;;;;;;20.20;69.90;;;;;;5056957;28;20052;-15
2023/01/04 02:08:07;;;;;;;0.52;0.50;;;20.20;69.90;;;;;;5066332;28;19917;-16
2023/01/04 02:10:33;;;;;;;0.57;0.52;;;20.30;69.70;;;;;;5045615;28;20045;-23
2023/01/04 02:13:01;;;;;;;0.50;0.50;;;20.30;69.80;;;;;;5047591;28;20048;-15
2023/01/04 02:15:27;;;;;;;0.50;0.50;;;20.20;69.80;;;;;;5039079;28;20422;-14
2023/01/04 02:18:04;;;;;;;0.60;0.60;;;20.20;69.70;;;;;;5039434;28;20576;-19
2023/01/04 02:20:35;;;;;;;0.55;0.40;;;20.30;69.50;;;;;;5056078;28;20119;-15
2023/01/04 02:23:19;;;;;;;0.40;0.40;;;20.30;69.50;;;;;;5040651;28;20044;-15
2023/01/04 02:26:06;;;;;;;0.80;0.40;;;20.20;69.60;;;;;;5055978;28;20140;-14
2023/01/04 02:28:53;;;;;;;0.50;0.50;;;20.10;70.00;;;;;;5057867;28;20106;-15
2023/01/04 02:31:48;;;;;;;0.40;0.40;;;20.20;70.00;;;;;;5041433;28;20068;-21
2023/01/04 02:34:38;;;;;;;0.40;0.32;;;20.10;70.00;;;;;;5053176;28;20142;-14
2023/01/04 02:37:22;;;;;;;0.40;0.40;;;20.20;69.80;;;;;;5035606;28;20048;-18
2023/01/04 02:40:22;;;;;;;0.80;0.47;;;20.10;70.00;;;;;;5057741;28;20055;-16
2023/01/04 02:45:51;;;;;;;0.85;0.40;;;20.20;69.60;;;;;;5077687;28;20094;-15
2023/01/04 02:51:00;;;;;;;0.73;0.50;;;20.20;69.70;;;;;;5076666;28;20687;-14
2023/01/04 02:53:32;;;;;;;1.00;0.50;;;20.20;69.60;;;;;;5072423;28;20131;-15
2023/01/04 02:56:05;;;;;;;1.55;0.50;;;20.20;69.70;;;;;;5090068;28;20563;-15
2023/01/04 02:59:13;;;;;;;0.43;0.43;;;20.20;69.80;;;;;;5073764;28;20049;-14
2023/01/04 03:08:10;;;;;;;0.55;0.40;;;20.20;69.80;;;;;;5075225;28;20055;-13
2023/01/04 03:10:54;;;;;;;0.45;0.45;;;20.20;69.60;;;;;;5075791;28;20468;-15
2023/01/04 03:13:20;;;;;;;0.82;0.50;;;20.10;69.80;;;;;;5075123;28;20520;-14
2023/01/04 03:16:14;;;;;;;0.75;0.40;;;20.10;70.00;;;;;;5082409;28;20076;-14
2023/01/04 03:18:41;;;;;;;0.40;0.40;;;20.20;69.80;;;;;;5063648;28;20074;-15
2023/01/04 03:21:07;;;;;;;0.40;0.40;;;20.10;69.80;;;;;;5060932;28;20047;-14
2023/01/04 03:37:34;;;;;;;;;;;20.20;69.90;;;;;;5071214;28;20160;-14
2023/01/04 03:48:45;;;;;;;0.30;0.30;;;20.20;69.60;;;;;;5068110;28;20083;-14
2023/01/04 03:51:14;;;;;;;0.38;0.30;;;20.20;69.90;;;;;;5085003;28;20040;-14
2023/01/04 03:54:20;;;;;;;0.70;0.50;;;20.20;69.80;;;;;;5077553;28;20071;-14
2023/01/04 03:56:46;;;;;;;0.98;0.50;;;20.20;69.60;;;;;;5003775;28;20633;-17
2023/01/04 03:59:11;;;;;;;0.40;0.40;;;20.20;69.60;;;;;;5001993;28;20038;-14
2023/01/04 04:01:37;;;;;;;1.70;0.30;;;20.20;69.60;;;;;;5026315;28;20040;-15
2023/01/04 04:09:31;;;;;;;0.30;0.25;;;20.10;70.00;;;;;;5025023;28;20008;-14
2023/01/04 04:11:57;;;;;;;0.50;0.40;;;20.00;70.10;;;;;;5017076;28;20049;-14
2023/01/04 04:14:22;;;;;;;0.65;0.50;;;20.10;69.90;;;;;;5024654;28;20518;-14
2023/01/04 04:16:48;;;;;;;0.52;0.40;;;20.30;69.60;;;;;;5017127;28;20086;-13
2023/01/04 04:19:13;;;;;;;0.60;0.50;;;20.20;69.70;;;;;;5019493;28;20455;-15
2023/01/04 04:21:39;;;;;;;0.73;0.38;;;20.10;69.80;;;;;;5019128;28;20061;-17
2023/01/04 04:24:05;;;;;;;1.02;0.40;;;20.10;70.00;;;;;;5020624;28;20054;-16
2023/01/04 04:26:31;;;;;;;0.30;0.30;;;20.20;69.80;;;;;;5025498;28;20050;-16
2023/01/04 04:28:56;;;;;;;0.57;0.40;;;20.20;69.70;;;;;;5081768;28;20089;-17
2023/01/04 04:31:22;;;;;;;1.13;0.30;;;20.10;70.70;;;;;;5080965;28;20059;-15
2023/01/04 04:33:47;;;;;;;0.57;0.40;;;20.20;69.70;;;;;;5057974;28;20040;-15
2023/01/04 04:36:13;;;;;;;0.77;0.50;;;20.20;69.70;;;;;;5073476;28;20508;-14
2023/01/04 04:38:38;;;;;;;0.90;0.32;;;20.30;69.50;;;;;;5079643;28;20028;-14
2023/01/04 04:43:56;;;;;;;0.60;0.40;;;20.10;69.90;;;;;;5080027;28;20628;-16
2023/01/04 04:46:21;;;;;;;0.52;0.40;;;20.10;70.00;;;;;;5075612;28;20047;-23
2023/01/04 04:48:47;;;;;;;0.52;0.40;;;20.10;70.00;;;;;;5075882;28;20044;-18
2023/01/04 04:51:13;;;;;;;0.70;0.50;;;20.00;70.30;;;;;;5075045;28;20040;-15
2023/01/04 04:53:38;;;;;;;0.75;0.40;;;20.00;70.40;;;;;;5074175;28;20060;-15
2023/01/04 04:56:05;;;;;;;0.47;0.35;;;20.00;70.40;;;;;;5076733;28;20044;-16
2023/01/04 04:58:31;;;;;;;0.60;0.60;;;20.00;70.10;;;;;;5071482;28;20063;-16
2023/01/04 05:00:56;;;;;;;0.43;0.30;;;20.10;70.10;;;;;;5078419;28;20460;-13
2023/01/04 05:03:22;;;;;;;1.00;0.30;;;20.10;70.00;;;;;;5074366;28;20032;-16
2023/01/04 05:05:47;;;;;;;0.30;0.30;;;20.10;69.80;;;;;;5074187;28;20119;-15
2023/01/04 05:08:13;;;;;;;0.55;0.38;;;20.00;70.20;;;;;;5072201;28;20036;-17
2023/01/04 05:10:38;;;;;;;0.43;0.30;;;20.00;70.00;;;;;;5072032;28;20064;-14
2023/01/04 05:13:06;;;;;;;0.40;0.30;;;20.00;70.20;;;;;;5074590;28;20123;-15
2023/01/04 05:15:36;;;;;;;0.22;0.20;;;20.00;70.40;;;;;;5072653;28;20533;-13
2023/01/04 05:18:02;;;;;;;0.55;0.40;;;20.00;70.20;;;;;;5073354;28;20098;-15
2023/01/04 05:20:27;;;;;;;0.40;0.30;;;20.00;70.20;;;;;;5050554;28;20043;-16
2023/01/04 05:22:53;;;;;;;0.65;0.35;;;20.10;70.10;;;;;;5071358;28;20036;-14
2023/01/04 05:25:18;;;;;;;0.35;0.30;;;20.20;69.70;;;;;;5072193;28;20508;-14
2023/01/04 05:27:44;;;;;;;0.55;0.28;;;20.10;69.90;;;;;;5073090;28;20117;-17
2023/01/04 05:32:55;;;;;;;0.55;0.30;;;19.90;70.30;;;;;;5072040;28;20063;-14
2023/01/04 05:35:20;;;;;;;0.32;0.22;;;20.10;70.20;;;;;;5077147;28;20587;-21
2023/01/04 05:37:46;;;;;;;0.85;0.30;;;20.10;69.90;;;;;;5072289;28;20132;-16
2023/01/04 05:40:11;;;;;;;1.00;0.22;;;20.10;69.70;;;;;;5072209;28;20040;-14
2023/01/04 05:42:37;;;;;;;0.63;0.28;;;20.20;69.60;;;;;;5074733;28;20611;-14
2023/01/04 05:45:03;;;;;;;0.45;0.30;;;20.00;69.90;;;;;;5077758;28;20053;-15
2023/01/04 05:47:29;;;;;;;0.57;0.38;;;20.00;70.10;;;;;;5072089;28;20036;-23
2023/01/04 05:49:54;;;;;;;0.38;0.30;;;20.00;70.00;;;;;;5076624;28;20193;-16
2023/01/04 05:52:20;;;;;;;0.47;0.43;;;20.00;70.20;;;;;;5070639;28;20169;-20
2023/01/04 05:54:46;;;;;;;0.35;0.30;;;20.00;70.20;;;;;;5073471;28;20401;-15
2023/01/04 05:57:11;;;;;;;0.20;0.17;;;20.20;70.00;;;;;;5075268;28;20496;-15
2023/01/04 05:59:37;;;;;;;0.35;0.30;;;20.20;69.80;;;;;;5070353;28;20160;-22
2023/01/04 06:02:03;;;;;;;0.60;0.38;;;20.00;70.10;;;;;;5071543;28;20032;-14
2023/01/04 06:04:28;;;;;;;0.47;0.25;;;19.90;70.30;;;;;;5069917;28;20040;-14
2023/01/04 06:06:54;;;;;;;0.88;0.28;;;19.90;70.60;;;;;;5072009;28;20051;-14
2023/01/04 06:09:19;;;;;;;1.13;0.40;;;19.90;70.70;;;;;;5073558;28;20044;-13
2023/01/04 06:11:45;;;;;;;0.40;0.35;;;20.00;70.50;;;;;;5078588;28;20088;-14
2023/01/04 06:14:10;;;;;;;2.30;0.40;;;20.00;70.50;;;;;;5070942;28;20059;-14
2023/01/04 06:16:36;;;;;;;0.40;0.32;;;20.10;70.20;;;;;;5068895;28;20051;-14
2023/01/04 06:19:02;;;;;;;0.30;0.25;;;20.20;70.00;;;;;;5071207;28;20497;-14
2023/01/04 06:21:27;;;;;;;0.60;0.30;;;20.10;70.10;;;;;;5071751;28;20094;-15
2023/01/04 06:23:53;;;;;;;0.40;0.30;;;20.10;70.00;;;;;;5070039;28;20497;-14
2023/01/04 06:26:19;;;;;;;0.70;0.30;;;20.00;70.10;;;;;;5068991;28;20036;-19
2023/01/04 06:28:44;;;;;;;0.63;0.30;;;20.00;71.00;;;;;;5072924;28;20050;-14
2023/01/04 06:31:10;;;;;;;0.30;0.30;;;20.00;70.50;;;;;;5069891;28;20734;-18
2023/01/04 06:33:36;;;;;;;0.95;0.40;;;20.10;70.20;;;;;;5069535;28;20052;-15
2023/01/04 06:36:01;;;;;;;1.63;0.38;;;20.10;70.10;;;;;;5070253;28;20041;-14
2023/01/04 06:38:27;;;;;;;0.30;0.30;;;20.00;70.00;;;;;;5073443;28;20044;-14
2023/01/04 06:40:53;;;;;;;0.13;0.13;;;20.00;70.20;;;;;;5067769;28;20637;-14
2023/01/04 06:43:18;;;;;;;0.70;0.70;;;20.00;70.10;;;;;;5071041;28;20043;-17
2023/01/04 06:45:44;;;;;;;0.77;0.77;;;19.90;70.30;;;;;;5072127;28;20048;-18
2023/01/04 06:48:10;;;;;;;0.73;0.68;;;19.80;70.50;;;;;;5077496;28;20477;-17
2023/01/04 06:50:36;;;;;;;1.08;0.88;;;19.90;70.40;;;;;;5072060;28;20040;-15
2023/01/04 06:53:01;;;;;;;1.02;0.90;;;20.00;70.30;;;;;;5070711;28;20040;-16
2023/01/04 06:55:28;;;;;;;1.20;1.15;;;20.00;69.80;;;;;;5072594;28;20048;-15
2023/01/04 06:57:57;;;;;;;2.00;1.80;;;20.10;69.80;;;;;;5072941;28;20063;-16
2023/01/04 07:00:23;;;;;;;1.98;1.88;;;20.00;69.70;;;;;;5074290;28;20044;-16
2023/01/04 07:02:49;;;;;;;3.42;2.10;;;20.00;70.00;;;;;;5072628;28;20076;-15
2023/01/04 07:05:14;;;;;;;2.63;2.10;;;20.00;70.00;;;;;;5074081;28;20072;-14
2023/01/04 07:07:40;;;;;;;2.20;1.92;;;19.90;70.30;;;;;;5073031;28;20486;-15
2023/01/04 07:10:06;;;;;;;2.63;2.20;;;19.90;70.30;;;;;;5073570;28;20041;-15
2023/01/04 07:12:31;;;;;;;2.47;2.28;;;20.00;70.10;;;;;;5075513;28;20413;-14
2023/01/04 07:14:57;;;;;;;2.83;2.60;;;19.90;69.80;;;;;;5072566;28;20116;-16
2023/01/04 07:17:23;;;;;;;2.70;2.50;;;20.00;69.90;;;;;;5075499;28;20055;-15
2023/01/04 07:19:48;;;;;;;3.80;3.50;;;19.90;70.00;;;;;;5072221;28;21269;-16
2023/01/04 07:22:14;;;;;;;4.28;3.95;;;19.90;69.80;;;;;;5070275;28;20020;-18
2023/01/04 07:24:39;;;;;;;4.00;3.70;;;19.90;69.90;;;;;;5087571;28;20536;-18
2023/01/04 07:27:05;;;;;;;5.78;5.25;;;19.90;70.10;;;;;;5071009;28;20040;-17
2023/01/04 07:29:31;;;;;;;6.55;5.72;;;20.00;70.10;;;;;;5073383;28;20043;-15
2023/01/04 07:31:56;;;;;;;6.25;5.43;;;20.10;70.00;;;;;;5077018;28;20052;-19
2023/01/04 07:34:23;;;;;;;6.55;5.60;;;20.10;69.80;;;;;;5069203;28;20044;-17
2023/01/04 07:36:49;;;;;;;9.02;6.60;;;20.10;69.80;;;;;;5076161;28;20157;-15
2023/01/04 07:39:15;;;;;;;12.18;7.15;;;20.00;70.20;;;;;;5072616;28;20509;-14
2023/01/04 07:41:41;;;;;;;13.95;8.40;;;20.10;70.00;;;;;;5069061;28;20050;-29
2023/01/04 07:44:06;;;;;;;17.60;10.27;;;20.10;69.90;;;;;;5064370;28;20040;-19
2023/01/04 07:46:32;;;;;;;22.73;13.18;;;20.00;70.50;;;;;;5052230;28;20033;-16
2023/01/04 07:48:58;;;;;;;27.70;16.02;;;20.10;70.60;;;;;;5031857;28;20406;-15
2023/01/04 07:51:24;;;;;;;31.65;16.80;;;20.10;71.00;;;;;;5047461;28;20072;-24
2023/01/04 07:53:50;;;;;;;33.60;16.67;;;20.10;70.70;;;;;;5054911;28;20052;-15
2023/01/04 07:56:16;;;;;;;36.90;18.67;;;20.20;70.80;;;;;;5051945;28;20036;-14
2023/01/04 07:58:41;;;;;;;31.55;18.70;;;20.30;70.80;;;;;;5046713;28;20586;-13
2023/01/04 08:01:12;;;;;;;36.60;20.13;;;20.20;70.50;;;;;;5051466;28;20064;-14
2023/01/04 08:03:37;;;;;;;35.17;19.17;;;20.10;71.60;;;;;;5052048;28;20489;-16
2023/01/04 08:06:07;;;;;;;36.40;19.35;;;20.20;71.40;;;;;;5052706;28;20040;-15
2023/01/04 08:08:32;;;;;;;31.42;18.13;;;20.20;72.30;;;;;;5050884;28;20131;-19
2023/01/04 08:11:02;;;;;;;34.05;17.40;;;20.10;72.30;;;;;;5051806;28;20179;-18
2023/01/04 08:13:27;;;;;;;27.77;16.92;;;20.10;71.90;;;;;;5040305;28;20524;-14
2023/01/04 08:15:53;;;;;;;32.75;18.45;;;20.20;72.10;;;;;;5044776;28;20037;-13
2023/01/04 08:18:19;;;;;;;29.52;16.02;;;20.20;73.20;;;;;;5052546;28;20079;-20
2023/01/04 08:20:44;;;;;;;33.17;16.80;;;20.20;73.00;;;;;;5050710;28;20053;-14
2023/01/04 08:23:10;;;;;;;25.27;15.73;;;20.20;73.10;;;;;;5052427;28;20937;-14
2023/01/04 08:25:36;;;;;;;29.20;16.17;;;20.20;72.70;;;;;;5056667;28;20414;-16
2023/01/04 08:28:01;;;;;;;27.58;15.75;;;20.10;73.50;;;;;;5054991;28;20527;-20
2023/01/04 08:30:27;;;;;;;24.10;15.70;;;20.20;73.50;;;;;;5049220;28;20080;-15
2023/01/04 08:32:52;;;;;;;28.83;16.75;;;20.20;73.80;;;;;;5053913;28;20498;-20
2023/01/04 08:35:19;;;;;;;24.25;14.05;;;20.20;73.80;;;;;;5047683;28;20041;-14
2023/01/04 08:37:44;;;;;;;29.98;15.35;;;20.10;73.90;;;;;;5058133;28;20044;-14
2023/01/04 08:40:10;;;;;;;24.85;14.35;;;20.10;73.90;;;;;;5059424;28;20562;-16
2023/01/04 08:42:36;;;;;;;24.70;14.30;;;20.10;74.00;;;;;;5057527;28;20086;-14
2023/01/04 08:45:01;;;;;;;29.05;14.02;;;20.20;73.70;;;;;;5070729;28;20052;-13
2023/01/04 08:47:30;;;;;;;21.88;13.65;;;20.20;73.60;;;;;;5070145;28;20497;-13
2023/01/04 08:49:56;;;;;;;23.00;12.93;;;20.30;73.20;;;;;;5071331;28;20036;-15
2023/01/04 08:52:21;;;;;;;21.85;13.00;;;20.30;73.10;;;;;;5072898;28;20390;-14
2023/01/04 08:54:48;;;;;;;24.00;13.52;;;20.30;73.00;;;;;;5073307;28;20024;-14
2023/01/04 08:57:14;;;;;;;21.00;12.63;;;20.20;73.10;;;;;;5081898;28;20049;-15
2023/01/04 08:59:40;;;;;;;23.23;13.32;;;20.30;72.90;;;;;;5077136;28;20090;-13
2023/01/04 09:02:17;;;;;;;22.67;12.55;;;20.20;73.00;;;;;;5070675;28;20501;-15
2023/01/04 09:04:43;;;;;;;19.92;11.93;;;20.20;72.90;;;;;;5068907;28;20036;-15
2023/01/04 09:07:08;;;;;;;19.90;10.23;;;20.20;72.80;;;;;;5071969;28;20052;-14
2023/01/04 09:09:34;;;;;;;15.65;10.48;;;20.20;72.80;;;;;;5071885;28;20044;-14
2023/01/04 09:12:00;;;;;;;16.83;10.88;;;20.30;72.70;;;;;;5073234;28;20306;-14
2023/01/04 09:14:25;;;;;;;20.17;10.30;;;20.30;72.70;;;;;;5068440;28;20124;-14
2023/01/04 09:16:51;;;;;;;16.73;10.02;;;20.30;72.50;;;;;;5072807;28;20501;-20
2023/01/04 09:19:16;;;;;;;13.50;9.05;;;20.20;72.70;;;;;;5071512;28;20402;-21
2023/01/04 09:21:42;;;;;;;15.20;9.75;;;20.30;72.70;;;;;;5070789;28;20139;-15
2023/01/04 09:24:08;;;;;;;15.05;10.07;;;20.30;72.50;;;;;;5071084;28;20097;-19
2023/01/04 09:26:33;;;;;;;14.45;10.07;;;20.30;72.50;;;;;;5074111;28;20048;-16
2023/01/04 09:28:59;;;;;;;12.27;8.88;;;20.30;72.70;;;;;;5070693;28;20036;-14
2023/01/04 09:31:26;;;;;;;14.35;9.35;;;20.30;72.60;;;;;;5068795;28;20037;-16
2023/01/04 09:33:51;;;;;;;17.08;8.90;;;20.30;72.50;;;;;;5069334;28;20040;-15
2023/01/04 09:36:17;;;;;;;14.77;8.50;;;20.30;72.40;;;;;;5069080;28;20049;-16
2023/01/04 09:38:43;;;;;;;13.10;9.00;;;20.30;72.40;;;;;;5067786;28;20040;-13
2023/01/04 09:41:23;;;;;;;12.27;8.73;;;20.30;72.40;;;;;;5071087;28;20036;-15
2023/01/04 09:43:51;;;;;;;13.38;8.50;;;20.30;72.50;;;;;;5065084;28;20521;-13
2023/01/04 09:46:33;;;;;;;14.90;8.52;;;20.40;72.10;;;;;;5069447;28;20076;-15
2023/01/04 09:49:24;;;;;;;15.50;9.05;;;20.40;71.70;;;;;;5067475;28;20036;-14
2023/01/04 09:51:58;;;;;;;12.18;8.05;;;20.40;71.60;;;;;;5068675;28;20090;-18
2023/01/04 09:54:27;;;;;;;13.98;8.15;;;20.40;71.70;;;;;;5076967;28;20048;-14
2023/01/04 09:56:54;;;;;;;10.40;7.70;;;20.50;71.90;;;;;;5064157;28;20052;-13
2023/01/04 09:59:26;;;;;;;10.75;7.47;;;20.30;72.00;;;;;;5066261;28;20036;-15
2023/01/04 10:02:00;;;;;;;10.57;7.80;;;20.40;71.90;;;;;;5064272;28;20138;-13
2023/01/04 10:04:55;;;;;;;10.65;7.75;;;20.50;71.70;;;;;;5066766;28;20048;-13
2023/01/04 10:07:27;;;;;;;10.45;7.18;;;20.40;71.90;;;;;;5048699;28;20071;-14
2023/01/04 10:09:53;;;;;;;8.88;6.97;;;20.40;71.80;;;;;;5066786;28;20135;-15
2023/01/04 10:12:29;;;;;;;10.05;7.65;;;20.40;71.90;;;;;;5073542;28;20104;-15
2023/01/04 10:15:02;;;;;;;11.23;7.80;;;20.40;72.00;;;;;;5064851;28;20131;-16
2023/01/04 10:17:58;;;;;;;11.25;7.90;;;20.30;72.30;;;;;;5030500;28;20697;-13
2023/01/04 10:20:48;;;;;;;12.23;8.55;;;20.40;72.20;;;;;;5070874;28;20177;-14
2023/01/04 10:23:20;;;;;;;11.70;8.57;;;20.40;72.00;;;;;;5071008;28;20585;-13
2023/01/04 10:26:25;;;;;;;9.80;7.53;;;20.40;71.90;;;;;;5070589;28;20081;-15
2023/01/04 10:29:24;;;;;;;8.93;7.10;;;20.40;71.90;;;;;;4988901;28;20074;-19
2023/01/04 10:32:04;;;;;;;8.52;7.43;;;20.30;72.20;;;;;;5003946;28;20116;-15
2023/01/04 10:34:36;;;;;;;8.70;6.90;;;20.40;72.20;;;;;;4990769;28;20034;-16
2023/01/04 10:37:22;;;;;;;10.43;7.28;;;20.40;72.10;;;;;;4985592;28;21495;-22
2023/01/04 10:39:53;;;;;;;8.52;6.95;;;20.40;72.00;;;;;;5004001;28;20477;-15
2023/01/04 10:42:35;;;;;;;9.07;6.78;;;20.40;72.10;;;;;;5006734;28;20530;-21
2023/01/04 10:45:01;;;;;;;7.85;6.82;;;20.40;71.90;;;;;;5011230;28;20057;-17
2023/01/04 10:47:45;;;;;;;9.07;6.10;;;20.40;71.90;;;;;;5011586;28;20410;-14
2023/01/04 10:50:28;;;;;;;;;;;20.40;71.90;;;;;;5009003;28;20435;-16
2023/01/04 10:53:04;;;;;;;7.57;6.60;;;20.50;71.70;;;;;;4989112;28;19921;-22
2023/01/04 10:55:38;;;;;;;9.07;7.43;;;20.40;71.90;;;;;;5011219;28;20083;-14
2023/01/04 10:58:09;;;;;;;7.82;6.97;;;20.40;71.90;;;;;;4989178;28;20337;-14
2023/01/04 11:00:50;;;;;;;7.15;6.43;;;20.40;71.90;;;;;;4970679;28;20129;-16
2023/01/04 11:03:30;;;;;;;7.85;6.35;;;20.60;71.60;;;;;;5014892;28;20072;-16
2023/01/04 11:06:07;;;;;;;7.28;5.43;;;20.50;71.40;;;;;;5043106;28;20097;-14
2023/01/04 11:08:37;;;;;;;9.45;6.15;;;20.50;71.50;;;;;;5027758;28;20052;-19
2023/01/04 11:11:14;;;;;;;6.80;6.10;;;20.50;71.50;;;;;;5009488;28;20092;-16
2023/01/04 11:13:40;;;;;;;6.95;6.07;;;20.40;71.70;;;;;;5032393;28;20525;-16
2023/01/04 11:16:06;;;;;;;6.90;5.38;;;20.50;71.70;;;;;;5047135;28;20045;-14
2023/01/04 11:18:32;;;;;;;9.52;5.95;;;20.40;71.50;;;;;;5031874;28;20075;-15
2023/01/04 11:20:58;;;;;;;6.65;4.93;;;20.50;71.70;;;;;;5029184;28;20045;-14
2023/01/04 11:23:24;;;;;;;8.20;5.60;;;20.60;71.60;;;;;;5046269;28;20064;-16
2023/01/04 11:25:56;;;;;;;9.55;5.90;;;20.60;71.30;;;;;;5045903;28;20506;-19
2023/01/04 11:28:40;;;;;;;9.60;6.40;;;20.60;71.30;;;;;;5031352;28;20048;-14
2023/01/04 11:31:25;;;;;;;6.40;5.18;;;20.60;71.30;;;;;;5046945;28;20045;-13
2023/01/04 11:34:00;;;;;;;8.30;5.50;;;20.70;71.10;;;;;;5028876;28;20552;-14
2023/01/04 11:36:41;;;;;;;7.93;6.15;;;20.60;71.10;;;;;;5047672;28;20037;-15
2023/01/04 11:39:27;;;;;;;8.82;6.28;;;20.50;71.10;;;;;;5043767;28;20417;-14
2023/01/04 11:41:57;;;;;;;8.85;5.25;;;20.60;70.90;;;;;;5043323;28;20041;-15
2023/01/04 11:44:23;;;;;;;8.57;5.80;;;20.60;71.10;;;;;;5055688;28;20506;-13
2023/01/04 11:47:04;;;;;;;10.15;5.63;;;20.60;71.00;;;;;;5068554;28;20036;-13
2023/01/04 11:49:35;;;;;;;6.13;5.35;;;20.70;70.80;;;;;;5070876;28;20044;-14
2023/01/04 11:52:00;;;;;;;6.40;5.55;;;20.70;70.70;;;;;;5046970;28;20114;-21
2023/01/04 11:54:26;;;;;;;5.72;5.10;;;20.70;70.60;;;;;;5078740;28;20036;-16
2023/01/04 11:57:04;;;;;;;8.40;5.00;;;20.70;70.30;;;;;;5073790;28;20127;-14
2023/01/04 11:59:30;;;;;;;7.60;4.93;;;20.70;70.40;;;;;;5073507;28;20075;-24
2023/01/04 12:02:17;;;;;;;6.88;5.05;;;20.60;70.80;;;;;;5053948;28;20084;-15
2023/01/04 12:04:43;;;;;;;7.43;4.80;;;20.60;71.10;;;;;;5077455;28;20032;-15
2023/01/04 12:07:32;;;;;;;7.43;4.97;;;20.60;70.80;;;;;;5075786;28;20031;-15
2023/01/04 12:09:58;;;;;;;5.22;4.28;;;20.60;70.80;;;;;;5043093;28;20044;-17
2023/01/04 12:12:27;;;;;;;5.72;4.75;;;20.60;70.80;;;;;;5077065;28;20496;-16
2023/01/04 12:14:53;;;;;;;5.50;4.85;;;20.50;70.90;;;;;;5071418;28;20035;-13
2023/01/04 12:17:24;;;;;;;5.35;4.07;;;20.50;70.90;;;;;;5076563;28;20053;-15
2023/01/04 12:19:54;;;;;;;8.38;5.03;;;20.60;70.60;;;;;;5054539;28;20048;-16
2023/01/04 12:22:21;;;;;;;5.75;4.47;;;20.50;71.70;;;;;;5051732;28;20107;-14
2023/01/04 12:24:47;;;;;;;6.22;4.60;;;20.50;71.10;;;;;;5065291;28;20039;-16
2023/01/04 12:27:13;;;;;;;5.05;4.55;;;20.50;71.20;;;;;;5071895;28;20037;-14
2023/01/04 12:30:02;;;;;;;4.70;4.07;;;20.40;71.40;;;;;;5050800;28;20389;-16
2023/01/04 12:32:28;;;;;;;4.75;4.25;;;20.50;71.30;;;;;;5062617;28;20043;-18
2023/01/04 12:34:53;;;;;;;4.32;3.88;;;20.40;71.20;;;;;;5080213;28;20032;-15
2023/01/04 12:37:44;;;;;;;5.60;4.18;;;20.50;71.00;;;;;;5072288;28;20098;-14
2023/01/04 12:40:45;;;;;;;5.03;4.60;;;20.40;71.10;;;;;;5071969;28;20123;-18
2023/01/04 12:43:13;;;;;;;5.63;4.25;;;20.50;71.00;;;;;;5071140;28;20497;-19
2023/01/04 12:45:39;;;;;;;4.22;3.80;;;20.40;71.10;;;;;;5073309;28;20060;-14
2023/01/04 12:51:24;;;;;;;6.35;4.28;;;20.50;71.10;;;;;;5076764;28;20048;-18
2023/01/04 12:53:50;;;;;;;4.38;4.07;;;20.40;71.40;;;;;;5075004;28;20037;-15
2023/01/04 12:56:15;;;;;;;6.95;4.00;;;20.40;71.40;;;;;;5079199;28;20096;-17
2023/01/04 12:58:41;;;;;;;5.22;4.10;;;20.40;71.40;;;;;;5074382;28;20033;-20
2023/01/04 13:01:07;;;;;;;5.43;4.75;;;20.40;71.20;;;;;;5051836;28;20509;-14
2023/01/04 13:03:34;;;;;;;6.28;5.15;;;20.50;71.20;;;;;;5075052;28;20086;-31
2023/01/04 13:06:01;;;;;;;5.55;5.05;;;20.50;71.20;;;;;;5072312;28;20053;-22
2023/01/04 13:08:27;;;;;;;6.50;4.82;;;20.50;71.30;;;;;;5054223;28;20060;-28
2023/01/04 13:10:55;;;;;;;5.65;4.80;;;20.50;71.50;;;;;;5049848;28;20132;-15
2023/01/04 13:13:39;;;;;;;5.43;4.82;;;20.60;71.30;;;;;;5073761;28;20031;-14
2023/01/04 13:16:25;;;;;;;6.27;5.50;;;20.50;71.20;;;;;;5073181;28;20440;-15
2023/01/04 13:18:55;;;;;;;5.30;4.80;;;20.40;71.50;;;;;;5071620;28;20783;-19
2023/01/04 13:21:32;;;;;;;4.95;4.55;;;20.40;71.80;;;;;;5036356;28;20179;-21
2023/01/04 13:24:13;;;;;;;7.80;5.03;;;20.50;71.70;;;;;;5074667;28;20091;-17
2023/01/04 13:26:41;;;;;;;6.10;4.97;;;20.50;71.60;;;;;;5068805;28;20040;-16
2023/01/04 13:29:17;;;;;;;5.18;4.63;;;20.60;71.40;;;;;;5058863;28;20067;-28
2023/01/04 13:31:53;;;;;;;6.25;4.93;;;20.60;71.30;;;;;;5069014;28;20514;-31
2023/01/04 13:34:24;;;;;;;6.88;4.97;;;20.60;71.30;;;;;;5066423;28;20049;-16
2023/01/04 13:37:17;;;;;;;5.50;5.00;;;20.80;70.90;;;;;;5047078;28;20041;-41
2023/01/04 13:39:47;;;;;;;7.50;5.15;;;20.70;71.20;;;;;;5071499;28;20032;-11
2023/01/04 13:42:21;;;;;;;6.78;5.00;;;20.70;70.90;;;;;;5050037;28;20412;-10
2023/01/04 13:45:06;;;;;;;4.82;4.40;;;20.70;71.30;;;;;;5069719;28;20111;-10
2023/01/04 13:47:35;;;;;;;;;;;20.60;71.70;;;;;;5050201;28;20028;-10